Aérodrome :
LOGIN :

S'inscrire | Disclaimer

   EN    FR    IT 

 










Légende :    VFR   VFR Marginal   IFR   IFR Intensif   IFR Très Intensif
Visi : 
Plafond : 
>= 8 km
>= 3000ft
5 à 8 km
1000 à 3000 ft
1500m à 5 km
500 à 1000 ft
800 à 1500m
200 à 500 ft
< 800m
< 200 ft
Symboles :   Orages  Brouillard  Fortes neiges  Fortes précipitations  Vent > 20 kt
SIGMETs :   Divers  Orages  Givrage  Turbulence  Onde Orograph.  Cendres Volcan.






- Altitude de l'aérodrome : 2425 ft


ETHA - Altenstadt Army

DERNIER METAR :
  • 201620Z 09003KT 7000 OVC006 02/01 Q1012 YLO YLO

METARs EXPIRÉS :
  • 201520Z 05004KT 8000 OVC006 02/01 Q1012 YLO YLO
  • 201515Z 06004KT 8000 OVC006 02/01 Q1012 YLO YLO
  • 201420Z 05005KT 9999 OVC008 03/01 Q1011 GRN GRN

TAF AMD TAF ETHA
Valide du 20 à 15h jusqu'au 21 à 00h UTC


201506Z 2015/2024 08005KT 5000 BR OVC005
BECMG 2019/2021 05003KT 0500 FG VV001



MET'MAP, la Météo Aéronautique d'un coup d'oeil ! - Copyright ORBIFLY Décembre 2007 - Disclaimer

ORBIFLY MET'MAP TEAM :

Programmation & Développement : Alexandra Zaïnal
Conception & Développement : Baudouin d'Aumeries
Co-Programmation & Développement : Marc-Olivier Méhu
Soutien technique & logistique : Manuel Goepfert

Contact : metmap@orbifly.com




SOURCES & CREDITS :

   NOAA